Rome, Italië

2:41 AM CET op 01 november 2014 (GMT +0100)
Ciampino | Change Station
CLOSE
Current Station
Persoonlijk weerstation
Location: Ciampino, LAZIO
Geometrische hoogte: 348 ft
Nabije weerstations

Hoogte 348 ft 41.81 °N, 12.60 °E | Updated 10 minutes ago

Clear
Helder
49.3 °F
Voelt als 49 °F
N
1.6
Wind Variabel Wind van NW
Gusts 3.8 mijl/u

Vandaag
Hoog -- | Laag -- °F
--% Kans op neerslag
Gisteren
Hoog -- | Laag -- °F
Precip. -- inches
6:41 AM 5:04 PM
Eerste kwartier, 61% visible
Druk 30.18 inches
Zicht -9999.0 mijlen
Wolken
Gevoelstemperatuur 49 °F
Dauwpunt 45 °F
Vochtigheid 85%
Neerslag 0.00 inches
Dikte sneeuw Niet beschikbaar.
UV Niet beschikbaar.
Pollen Niet beschikbaar.
Luchtkwaliteit Niet beschikbaar.
Flu Activity Niet beschikbaar.
METAR LIRA 010115Z 00000KT CAVOK 09/07 Q1022

More Conditions Fewer Conditions

Druk 30.18 inches
Zicht -9999.0 mijlen
Wolken
Gevoelstemperatuur 49 °F
Dauwpunt 45 °F
Vochtigheid 85%
Neerslag 0.00 inches
Dikte sneeuw Niet beschikbaar.
UV Niet beschikbaar.
Pollen Niet beschikbaar.
Luchtkwaliteit Niet beschikbaar.
Flu Activity Niet beschikbaar.
METAR LIRA 010115Z 00000KT CAVOK 09/07 Q1022

More Conditions Fewer Conditions

10-Day Weather Forecast

Almanac

Astronomie

Nov. 01, 2014 Opkomst Ondergang
Werkelijke tijd
Burgerlijke schemering
Nautische schemering
Astronomische schemering
Maan
Golflengte van het zichtbare licht
Daglengte
Tomorrow will be .
, % of the Moon is Illuminated

Extremen vandaag

Country Highs Country Lows

Community

WunderPhotos

Upload Photos

1,766,810 foto’s ge-upload!

WunderBlogs® & News

Nearby

Luchtkwaliteit

  Luchtkwaliteit LK-index Verontreinigende stof
Not available.

Dikte sneeuw

Station Depth Geometrische hoogte

Aardbevingen

Stad Distance Mag. Time & Date
Minimum magnitude displayed is 2.5.

Watertemperatuur langs de kust

Plaats Temperatuur

Nabije weerstations